createdAt,value
2018-01-25T00:02:02.812Z,20.77
2018-01-25T00:04:30.277Z,49.20
2018-01-25T00:06:57.879Z,82.27
2018-01-25T00:09:25.362Z,37.33
2018-01-25T00:11:52.791Z,40.93
2018-01-25T00:14:20.239Z,19.77
2018-01-25T00:16:47.695Z,72.60
2018-01-25T00:19:15.141Z,64.40
2018-01-25T00:21:42.598Z,73.40
2018-01-25T00:24:10.041Z,25.60
2018-01-25T00:26:37.508Z,24.93
2018-01-25T00:29:04.971Z,86.07
2018-01-25T00:31:33.196Z,70.63
2018-01-25T00:34:00.651Z,98.47
2018-01-25T00:36:28.109Z,66.20
2018-01-25T00:38:55.569Z,18.17
2018-01-25T00:41:23.029Z,23.37
2018-01-25T00:43:50.478Z,52.73
2018-01-25T00:46:17.937Z,88.20
2018-01-25T00:48:45.404Z,30.77
2018-01-25T00:51:13.050Z,55.50
2018-01-25T00:53:40.529Z,62.90
2018-01-25T00:56:07.970Z,50.23
2018-01-25T00:58:35.443Z,51.47
2018-01-25T01:01:02.912Z,52.60
2018-01-25T01:03:30.376Z,36.37
2018-01-25T01:05:57.818Z,56.40
2018-01-25T01:08:25.289Z,25.97
2018-01-25T01:10:52.731Z,40.90
2018-01-25T01:13:20.202Z,38.97
2018-01-25T01:15:47.649Z,15.50
2018-01-25T01:18:15.103Z,18.43
2018-01-25T01:20:42.567Z,22.60
2018-01-25T01:23:10.028Z,16.73
2018-01-25T01:25:37.501Z,13.10
2018-01-25T01:28:04.936Z,7.70
2018-01-25T01:30:32.384Z,4.87
2018-01-25T01:32:59.847Z,4.33
2018-01-25T01:35:27.280Z,2.67
2018-01-25T01:37:54.702Z,2.33
2018-01-25T01:40:22.166Z,3.80
2018-01-25T01:42:49.800Z,3.63
2018-01-25T01:45:18.036Z,4.70
2018-01-25T01:47:45.466Z,3.37
2018-01-25T01:50:12.924Z,3.03
2018-01-25T01:52:40.351Z,3.90
2018-01-25T01:55:07.803Z,4.80
2018-01-25T01:57:35.276Z,3.57
2018-01-25T02:00:02.715Z,4.93
2018-01-25T02:02:30.169Z,10.33
2018-01-25T02:04:57.629Z,5.67
2018-01-25T02:07:25.094Z,4.50
2018-01-25T02:09:52.547Z,5.07
2018-01-25T02:12:19.993Z,3.70
2018-01-25T02:14:47.436Z,4.80
2018-01-25T02:17:14.895Z,12.17
2018-01-25T02:19:42.371Z,4.50
2018-01-25T02:22:09.826Z,5.10
2018-01-25T02:24:37.294Z,3.73
2018-01-25T02:27:04.723Z,5.03
2018-01-25T02:29:32.170Z,3.83
2018-01-25T02:31:59.623Z,4.23
2018-01-25T02:34:27.080Z,3.80
2018-01-25T02:36:54.538Z,3.50
2018-01-25T02:39:21.979Z,4.07
2018-01-25T02:41:49.524Z,3.00
2018-01-25T02:44:16.953Z,2.93
2018-01-25T02:46:45.177Z,2.27
2018-01-25T02:49:12.595Z,7.90
2018-01-25T02:51:40.041Z,4.07
2018-01-25T02:54:07.468Z,6.53
2018-01-25T02:56:34.910Z,9.97
2018-01-25T02:59:03.235Z,3.60
2018-01-25T03:01:30.664Z,3.13
2018-01-25T03:03:58.162Z,6.67
2018-01-25T03:06:25.606Z,3.43
2018-01-25T03:08:53.835Z,7.07
2018-01-25T03:11:21.296Z,4.00
2018-01-25T03:13:48.755Z,2.77
2018-01-25T03:16:16.191Z,3.60
2018-01-25T03:18:43.633Z,3.43
2018-01-25T03:21:11.072Z,3.43
2018-01-25T03:23:38.533Z,2.60
2018-01-25T03:26:05.963Z,2.60
2018-01-25T03:28:33.423Z,3.10
2018-01-25T03:31:00.861Z,4.20
2018-01-25T03:33:28.302Z,2.20
2018-01-25T03:35:55.748Z,2.50
2018-01-25T03:38:23.199Z,2.20
2018-01-25T03:40:50.643Z,2.50
2018-01-25T03:43:24.011Z,6.67
2018-01-25T03:45:52.224Z,3.57
2018-01-25T03:48:19.761Z,2.30
2018-01-25T03:50:47.195Z,1.97
2018-01-25T03:53:14.647Z,2.67
2018-01-25T03:55:42.084Z,2.30
2018-01-25T03:58:09.581Z,1.83
2018-01-25T04:00:37.031Z,3.67
2018-01-25T04:03:04.523Z,1.93
2018-01-25T04:05:32.000Z,2.67
2018-01-25T04:07:59.465Z,2.07
2018-01-25T04:10:26.902Z,2.27
2018-01-25T04:12:54.334Z,1.70
2018-01-25T04:15:21.769Z,2.47
2018-01-25T04:17:49.204Z,2.40
2018-01-25T04:20:16.659Z,2.77
2018-01-25T04:22:44.094Z,3.10
2018-01-25T04:25:11.550Z,1.80
2018-01-25T04:27:39.010Z,2.80
2018-01-25T04:30:06.455Z,4.03
2018-01-25T04:32:33.885Z,2.40
2018-01-25T04:35:01.327Z,4.90
2018-01-25T04:37:29.553Z,2.30
2018-01-25T04:39:56.990Z,2.20
2018-01-25T04:42:24.420Z,2.73
2018-01-25T04:44:52.658Z,4.47
2018-01-25T04:47:20.101Z,2.60
2018-01-25T04:49:47.560Z,2.50
2018-01-25T04:52:15.025Z,3.20
2018-01-25T04:54:42.640Z,2.00
2018-01-25T04:57:10.078Z,2.27
2018-01-25T04:59:37.540Z,2.90
2018-01-25T05:02:04.979Z,2.93
2018-01-25T05:04:32.419Z,1.70
2018-01-25T05:06:59.875Z,2.57
2018-01-25T05:09:27.326Z,2.00
2018-01-25T05:11:54.764Z,2.23
2018-01-25T05:14:22.201Z,3.70
2018-01-25T05:16:49.740Z,2.37
2018-01-25T05:19:17.951Z,3.00
2018-01-25T05:21:45.388Z,2.20
2018-01-25T05:24:12.828Z,3.00
2018-01-25T05:26:41.038Z,2.93
2018-01-25T05:29:08.499Z,6.90
2018-01-25T05:31:35.946Z,2.07
2018-01-25T05:34:03.383Z,2.53
2018-01-25T05:36:30.812Z,2.37
2018-01-25T05:38:58.255Z,3.30
2018-01-25T05:41:25.693Z,3.10
2018-01-25T05:43:53.163Z,4.70
2018-01-25T05:46:20.632Z,5.83
2018-01-25T05:48:48.080Z,3.03
2018-01-25T05:51:15.529Z,6.17
2018-01-25T05:53:42.956Z,2.60
2018-01-25T05:56:10.411Z,4.43
2018-01-25T05:58:37.850Z,3.97
2018-01-25T06:01:05.296Z,3.00
2018-01-25T06:03:33.513Z,5.07
2018-01-25T06:06:01.277Z,5.83
2018-01-25T06:08:28.717Z,2.73
2018-01-25T06:10:56.159Z,6.67
2018-01-25T06:13:23.600Z,3.70
2018-01-25T06:15:51.875Z,5.60
2018-01-25T06:18:20.090Z,3.30
2018-01-25T06:20:47.507Z,6.90
2018-01-25T06:23:15.725Z,7.00
2018-01-25T06:25:43.155Z,4.60
2018-01-25T06:28:10.612Z,8.50
2018-01-25T06:30:38.049Z,9.00
2018-01-25T06:33:05.491Z,7.37
2018-01-25T06:35:32.950Z,3.10
2018-01-25T06:38:00.392Z,9.70
2018-01-25T06:40:27.860Z,3.63
2018-01-25T06:42:55.324Z,7.93
2018-01-25T06:45:22.778Z,7.00
2018-01-25T06:47:50.221Z,11.27
2018-01-25T06:50:17.697Z,4.33
2018-01-25T06:52:45.108Z,5.00
2018-01-25T06:55:12.578Z,5.93
2018-01-25T06:57:39.992Z,8.00
2018-01-25T07:00:08.219Z,11.87
2018-01-25T07:02:35.671Z,7.57
2018-01-25T07:05:03.123Z,7.47
2018-01-25T07:07:31.465Z,3.83
2018-01-25T07:09:58.898Z,10.83
2018-01-25T07:12:26.344Z,6.43
2018-01-25T07:14:53.812Z,5.83
2018-01-25T07:17:21.253Z,8.30
2018-01-25T07:19:48.724Z,5.73
2018-01-25T07:22:16.189Z,4.43
2018-01-25T07:24:43.664Z,6.70
2018-01-25T07:27:11.083Z,4.70
2018-01-25T07:29:38.575Z,7.27
2018-01-25T07:32:06.691Z,16.03
2018-01-25T07:34:34.132Z,5.73
2018-01-25T07:37:01.612Z,6.13
2018-01-25T07:39:29.086Z,7.80
2018-01-25T07:41:56.581Z,7.77
2018-01-25T07:44:24.071Z,3.43
2018-01-25T07:46:52.224Z,2.83
2018-01-25T07:49:19.695Z,3.40
2018-01-25T07:51:47.287Z,4.10
2018-01-25T07:54:14.752Z,5.97
2018-01-25T07:56:42.191Z,13.87
2018-01-25T07:59:09.637Z,4.93
2018-01-25T08:01:37.101Z,4.07
2018-01-25T08:04:05.391Z,5.30
2018-01-25T08:06:32.825Z,3.40
2018-01-25T08:09:00.279Z,4.70
2018-01-25T08:11:27.768Z,5.93
2018-01-25T08:13:55.332Z,9.23
2018-01-25T08:16:28.468Z,6.00
2018-01-25T08:18:55.948Z,6.23
2018-01-25T08:21:23.424Z,3.00
2018-01-25T08:23:50.868Z,8.00
2018-01-25T08:26:18.348Z,8.97
2018-01-25T08:28:45.821Z,5.20
2018-01-25T08:31:13.293Z,5.33
2018-01-25T08:33:40.803Z,4.80
2018-01-25T08:36:08.263Z,3.17
2018-01-25T08:38:35.720Z,8.83
2018-01-25T08:41:03.149Z,4.70
2018-01-25T08:43:30.591Z,4.07
2018-01-25T08:45:58.052Z,7.63
2018-01-25T08:48:25.522Z,7.70
2018-01-25T08:50:52.944Z,4.53
2018-01-25T08:53:21.180Z,9.73
2018-01-25T08:55:49.429Z,5.40
2018-01-25T08:58:16.867Z,9.40
2018-01-25T09:00:44.315Z,13.00
2018-01-25T09:03:11.755Z,3.43
2018-01-25T09:05:39.986Z,8.13
2018-01-25T09:08:07.415Z,9.13
2018-01-25T09:10:34.844Z,10.23
2018-01-25T09:13:03.052Z,20.00
2018-01-25T09:15:31.028Z,11.63
2018-01-25T09:17:58.672Z,6.97
2018-01-25T09:20:26.107Z,9.10
2018-01-25T09:22:53.556Z,5.70
2018-01-25T09:25:21.011Z,4.87
2018-01-25T09:27:48.446Z,6.30
2018-01-25T09:30:15.922Z,3.27
2018-01-25T09:32:43.370Z,4.27
2018-01-25T09:35:10.827Z,8.10
2018-01-25T09:37:38.293Z,4.10
2018-01-25T09:40:05.828Z,5.47
2018-01-25T09:42:33.274Z,6.00
2018-01-25T09:45:00.730Z,5.10
2018-01-25T09:47:28.167Z,5.00
2018-01-25T09:49:55.608Z,9.50
2018-01-25T09:52:23.810Z,6.22
2018-01-25T09:54:51.263Z,4.10
2018-01-25T09:57:18.726Z,9.20
2018-01-25T09:59:46.223Z,4.53
2018-01-25T10:02:13.827Z,10.07
2018-01-25T10:04:41.273Z,3.93
2018-01-25T10:07:08.720Z,4.97
2018-01-25T10:09:36.954Z,4.40
2018-01-25T10:12:04.420Z,5.93
2018-01-25T10:14:31.883Z,22.57
2018-01-25T10:16:59.335Z,6.10
2018-01-25T10:19:26.773Z,6.53
2018-01-25T10:21:54.234Z,5.23
2018-01-25T10:24:21.904Z,2.00
2018-01-25T10:26:49.399Z,6.37
2018-01-25T10:29:16.874Z,3.73
2018-01-25T10:31:45.087Z,6.37
2018-01-25T10:34:12.542Z,8.77
2018-01-25T10:36:39.972Z,7.90
2018-01-25T10:39:07.419Z,7.40
2018-01-25T10:41:34.855Z,4.97
2018-01-25T10:44:03.090Z,6.37
2018-01-25T10:46:30.544Z,3.93
2018-01-25T10:48:58.199Z,4.53
2018-01-25T10:51:25.655Z,4.43
2018-01-25T10:53:53.114Z,5.57
2018-01-25T10:56:20.564Z,4.30
2018-01-25T10:58:47.991Z,4.30
2018-01-25T11:01:36.048Z,5.73
2018-01-25T11:04:03.476Z,12.20
2018-01-25T11:06:31.903Z,2.60
2018-01-25T11:08:59.331Z,4.07
2018-01-25T11:11:26.772Z,4.60
2018-01-25T11:13:54.972Z,3.30
2018-01-25T11:16:22.463Z,4.23
2018-01-25T11:18:49.910Z,4.33
2018-01-25T11:21:17.565Z,3.43
2018-01-25T11:23:45.023Z,3.33
2018-01-25T11:26:12.451Z,2.23
2018-01-25T11:28:40.041Z,3.60
2018-01-25T11:31:07.482Z,2.83
2018-01-25T11:33:34.905Z,3.20
2018-01-25T11:36:02.389Z,3.70
2018-01-25T11:38:29.839Z,1.80
2018-01-25T11:40:57.327Z,8.10
2018-01-25T11:43:24.760Z,2.30
2018-01-25T11:45:52.216Z,1.63
2018-01-25T11:48:19.659Z,2.20
2018-01-25T11:50:48.047Z,2.90
2018-01-25T11:53:15.493Z,3.60
2018-01-25T11:55:42.951Z,2.80
2018-01-25T11:58:11.140Z,3.27
2018-01-25T12:00:38.587Z,3.80
2018-01-25T12:03:06.071Z,4.37
2018-01-25T12:05:33.555Z,2.53
2018-01-25T12:08:01.016Z,1.63
2018-01-25T12:10:28.511Z,2.10
2018-01-25T12:12:56.076Z,2.40
2018-01-25T12:15:23.519Z,3.30
2018-01-25T12:17:50.963Z,2.63
2018-01-25T12:20:18.450Z,4.80
2018-01-25T12:22:46.696Z,2.50
2018-01-25T12:25:14.231Z,4.00
2018-01-25T12:27:41.642Z,2.00
2018-01-25T12:30:09.108Z,1.87
2018-01-25T12:32:36.607Z,2.07
2018-01-25T12:35:04.139Z,1.10
2018-01-25T12:37:31.600Z,5.53
2018-01-25T12:39:59.263Z,3.80
2018-01-25T12:42:26.720Z,3.63
2018-01-25T12:44:54.136Z,2.90
2018-01-25T12:47:22.348Z,5.97
2018-01-25T12:49:49.811Z,4.23
2018-01-25T12:52:17.467Z,5.83
2018-01-25T12:54:44.943Z,3.63
2018-01-25T12:57:12.490Z,5.63
2018-01-25T12:59:39.904Z,4.23
2018-01-25T13:02:07.374Z,2.80
2018-01-25T13:04:34.783Z,3.83
2018-01-25T13:07:02.244Z,5.33
2018-01-25T13:09:29.686Z,3.43
2018-01-25T13:11:57.123Z,3.67
2018-01-25T13:14:24.568Z,3.57
2018-01-25T13:16:52.019Z,3.70
2018-01-25T13:19:19.571Z,4.20
2018-01-25T13:21:47.012Z,9.27
2018-01-25T13:24:14.453Z,4.57
2018-01-25T13:26:43.318Z,6.23
2018-01-25T13:29:10.759Z,11.13
2018-01-25T13:31:38.187Z,5.20
2018-01-25T13:34:05.633Z,6.70
2018-01-25T13:36:33.068Z,4.07
2018-01-25T13:39:00.499Z,6.03
2018-01-25T13:41:27.961Z,5.77
2018-01-25T13:43:55.420Z,5.67
2018-01-25T13:46:22.915Z,15.23
2018-01-25T13:48:50.359Z,6.30
2018-01-25T13:51:17.784Z,8.40
2018-01-25T13:53:45.278Z,4.80
2018-01-25T13:56:12.672Z,3.60
2018-01-25T13:58:40.104Z,3.90
2018-01-25T14:01:07.534Z,4.33
2018-01-25T14:03:35.041Z,3.23
2018-01-25T14:06:02.479Z,6.37
2018-01-25T14:08:29.917Z,10.07
2018-01-25T14:10:57.348Z,4.50
2018-01-25T14:13:24.811Z,5.10
2018-01-25T14:15:52.252Z,6.80
2018-01-25T14:18:20.002Z,30.50
2018-01-25T14:20:47.439Z,9.53
2018-01-25T14:23:15.641Z,7.53
2018-01-25T14:25:43.090Z,5.73
2018-01-25T14:28:10.566Z,10.40
2018-01-25T14:30:37.986Z,6.17
2018-01-25T14:33:05.435Z,10.00
2018-01-25T14:35:32.865Z,8.67
2018-01-25T14:38:00.311Z,10.13
2018-01-25T14:40:27.753Z,5.07
2018-01-25T14:42:55.193Z,4.80
2018-01-25T14:45:22.637Z,8.43
2018-01-25T14:47:50.160Z,6.53
2018-01-25T14:50:17.608Z,4.60
2018-01-25T14:52:45.268Z,7.20
2018-01-25T14:55:12.731Z,3.63
2018-01-25T14:57:40.167Z,6.03
2018-01-25T15:00:07.614Z,7.27
2018-01-25T15:02:35.062Z,7.00
2018-01-25T15:05:02.519Z,5.87
2018-01-25T15:07:29.965Z,13.47
2018-01-25T15:09:57.591Z,9.27
2018-01-25T15:12:25.048Z,7.30
2018-01-25T15:14:53.293Z,10.47
2018-01-25T15:17:20.748Z,9.57
2018-01-25T15:19:48.177Z,9.63
2018-01-25T15:22:15.641Z,6.30
2018-01-25T15:24:43.184Z,6.93
2018-01-25T15:27:25.513Z,8.23
2018-01-25T15:29:52.973Z,5.33
2018-01-25T15:32:20.434Z,7.97
2018-01-25T15:34:47.898Z,9.60
2018-01-25T15:37:15.356Z,7.60
2018-01-25T15:39:42.819Z,6.47
2018-01-25T15:42:10.438Z,5.33
2018-01-25T15:44:37.893Z,9.17
2018-01-25T15:47:05.349Z,7.17
2018-01-25T15:49:32.836Z,7.63
2018-01-25T15:52:00.572Z,10.93
2018-01-25T15:54:28.063Z,9.83
2018-01-25T15:56:55.500Z,10.90
2018-01-25T15:59:22.969Z,8.57
2018-01-25T16:01:50.501Z,9.60
2018-01-25T16:04:18.062Z,6.47
2018-01-25T16:06:45.502Z,5.40
2018-01-25T16:09:12.981Z,4.80
2018-01-25T16:11:40.455Z,5.33
2018-01-25T16:14:08.092Z,7.10
2018-01-25T16:16:35.630Z,13.77
2018-01-25T16:19:03.037Z,7.97
2018-01-25T16:21:30.520Z,7.83
2018-01-25T16:23:57.959Z,14.77
2018-01-25T16:26:25.419Z,8.43
2018-01-25T16:28:52.865Z,9.60
2018-01-25T16:31:20.326Z,9.23
2018-01-25T16:33:47.781Z,11.90
2018-01-25T16:36:15.271Z,8.93
2018-01-25T16:38:42.783Z,6.33
2018-01-25T16:41:10.429Z,5.20
2018-01-25T16:43:37.899Z,8.57
2018-01-25T16:46:05.374Z,8.50
2018-01-25T16:48:32.836Z,7.67
2018-01-25T16:51:00.324Z,5.87
2018-01-25T16:53:27.767Z,7.07
2018-01-25T17:02:37.951Z,5.90
2018-01-25T17:05:05.434Z,6.40
2018-01-25T17:07:33.031Z,6.73
2018-01-25T17:10:00.504Z,5.03
2018-01-25T17:12:27.977Z,6.00
2018-01-25T17:14:55.428Z,6.23
2018-01-25T17:17:22.904Z,10.23
2018-01-25T17:19:50.427Z,7.90
2018-01-25T17:22:17.891Z,10.07
2018-01-25T17:24:45.362Z,7.33
2018-01-25T17:27:12.812Z,9.53
2018-01-25T17:29:40.279Z,5.73
2018-01-25T17:32:07.737Z,6.77
2018-01-25T17:34:35.192Z,5.87
2018-01-25T17:37:02.657Z,5.37
2018-01-25T17:39:30.124Z,6.83
2018-01-25T17:41:57.571Z,6.77
2018-01-25T17:44:25.032Z,10.07
2018-01-25T17:46:52.468Z,8.43
2018-01-25T17:49:19.968Z,7.67
2018-01-25T17:51:47.432Z,5.83
2018-01-25T17:54:14.904Z,9.40
2018-01-25T17:56:42.367Z,10.37
2018-01-25T17:59:09.812Z,12.60
2018-01-25T18:01:37.393Z,14.13
2018-01-25T18:04:04.944Z,12.67
2018-01-25T18:06:32.424Z,8.80
2018-01-25T18:08:59.928Z,9.90
2018-01-25T18:11:27.375Z,9.40
2018-01-25T18:13:54.837Z,7.60
2018-01-25T18:16:22.322Z,10.30
2018-01-25T18:18:49.785Z,10.80
2018-01-25T18:21:17.220Z,8.67
2018-01-25T18:23:44.707Z,10.17
2018-01-25T18:26:12.333Z,9.67
2018-01-25T18:28:39.787Z,11.50
2018-01-25T18:31:07.234Z,6.70
2018-01-25T18:33:34.737Z,15.13
2018-01-25T18:36:02.951Z,14.37
2018-01-25T18:38:30.405Z,10.90
2018-01-25T18:40:57.892Z,8.93
2018-01-25T18:43:25.312Z,8.33
2018-01-25T18:45:52.846Z,6.63
2018-01-25T18:48:20.289Z,6.50
2018-01-25T18:50:48.513Z,6.03
2018-01-25T18:53:15.932Z,5.00
2018-01-25T18:55:43.390Z,9.13
2018-01-25T18:58:10.849Z,9.57
2018-01-25T19:00:38.292Z,9.00
2018-01-25T19:03:05.749Z,6.23
2018-01-25T19:05:33.205Z,6.90
2018-01-25T19:08:00.725Z,7.07
2018-01-25T19:10:28.121Z,9.10
2018-01-25T19:12:55.588Z,10.63
2018-01-25T19:15:23.040Z,9.03
2018-01-25T19:17:50.520Z,11.80
2018-01-25T19:20:18.166Z,12.07
2018-01-25T19:22:45.595Z,7.63
2018-01-25T19:25:13.050Z,9.37
2018-01-25T19:27:40.507Z,8.17
2018-01-25T19:30:07.955Z,9.50
2018-01-25T19:32:36.171Z,7.97
2018-01-25T19:35:03.623Z,10.90
2018-01-25T19:37:31.080Z,8.83
2018-01-25T19:39:58.537Z,10.27
2018-01-25T19:42:26.004Z,6.63
2018-01-25T19:44:53.440Z,7.47
2018-01-25T19:47:20.903Z,7.43
2018-01-25T19:49:48.336Z,7.50
2018-01-25T19:52:15.779Z,7.10
2018-01-25T19:54:43.241Z,6.53
2018-01-25T19:57:11.468Z,6.40
2018-01-25T19:59:38.933Z,9.37
2018-01-25T20:02:06.379Z,12.07
2018-01-25T20:04:33.836Z,12.83
2018-01-25T20:07:01.295Z,12.63
2018-01-25T20:09:28.744Z,13.77
2018-01-25T20:11:56.195Z,12.20
2018-01-25T20:14:23.670Z,10.50
2018-01-25T20:16:51.296Z,10.63
2018-01-25T20:19:18.745Z,9.73
2018-01-25T20:21:46.211Z,14.80
2018-01-25T20:24:13.689Z,11.17
2018-01-25T20:26:41.153Z,11.37
2018-01-25T20:29:08.585Z,12.33
2018-01-25T20:31:36.040Z,12.13
2018-01-25T20:34:03.476Z,14.40
2018-01-25T20:36:31.699Z,13.13
2018-01-25T20:38:59.147Z,13.90
2018-01-25T20:41:26.581Z,12.03
2018-01-25T20:43:54.047Z,11.43
2018-01-25T20:46:21.482Z,13.63
2018-01-25T20:48:48.932Z,13.80
2018-01-25T20:51:16.371Z,15.33
2018-01-25T20:53:43.816Z,17.13
2018-01-25T20:56:11.274Z,15.77
2018-01-25T20:58:38.717Z,18.03
2018-01-25T21:01:06.171Z,17.80
2018-01-25T21:03:33.629Z,16.87
2018-01-25T21:06:01.083Z,20.00
2018-01-25T21:08:28.524Z,16.40
2018-01-25T21:10:55.979Z,14.77
2018-01-25T21:13:23.424Z,14.63
2018-01-25T21:15:50.864Z,14.93
2018-01-25T21:18:18.319Z,15.10
2018-01-25T21:20:45.750Z,12.17
2018-01-25T21:23:13.208Z,10.23
2018-01-25T21:25:40.660Z,11.73
2018-01-25T21:28:08.106Z,10.20
2018-01-25T21:30:35.555Z,11.60
2018-01-25T21:33:03.001Z,9.47
2018-01-25T21:35:31.344Z,9.17
2018-01-25T21:37:58.794Z,8.57
2018-01-25T21:40:26.239Z,9.67
2018-01-25T21:42:54.457Z,9.13
2018-01-25T21:45:21.895Z,9.00
2018-01-25T21:47:49.349Z,8.33
2018-01-25T21:50:16.779Z,9.10
2018-01-25T21:52:44.215Z,8.27
2018-01-25T21:55:11.654Z,7.50
2018-01-25T21:57:39.091Z,8.70
2018-01-25T22:00:06.523Z,8.70
2018-01-25T22:02:34.740Z,7.60
2018-01-25T22:05:02.175Z,8.40
2018-01-25T22:07:29.607Z,9.97
2018-01-25T22:09:57.047Z,7.10
2018-01-25T22:12:24.471Z,8.13
2018-01-25T22:14:51.923Z,7.53
2018-01-25T22:17:19.385Z,6.80
2018-01-25T22:19:46.803Z,6.83
2018-01-25T22:22:14.272Z,7.70
2018-01-25T22:24:41.703Z,7.83
2018-01-25T22:27:09.143Z,6.73
2018-01-25T22:29:36.745Z,7.67
2018-01-25T22:32:04.173Z,6.17
2018-01-25T22:34:32.417Z,6.70
2018-01-25T22:36:59.880Z,7.47
2018-01-25T22:39:27.316Z,8.33
2018-01-25T22:41:54.763Z,7.23
2018-01-25T22:44:22.204Z,5.83
2018-01-25T22:46:49.631Z,6.80
2018-01-25T22:49:17.883Z,7.03
2018-01-25T22:51:45.362Z,5.33
2018-01-25T22:54:13.574Z,6.73
2018-01-25T22:56:41.018Z,6.03
2018-01-25T22:59:08.442Z,5.97
2018-01-25T23:01:35.892Z,5.40
2018-01-25T23:04:03.337Z,7.30
2018-01-25T23:06:30.784Z,8.17
2018-01-25T23:08:58.233Z,6.83
2018-01-25T23:11:25.663Z,7.03
2018-01-25T23:13:53.111Z,9.73
2018-01-25T23:16:20.527Z,7.57
2018-01-25T23:18:47.980Z,7.83
2018-01-25T23:21:15.434Z,8.70
2018-01-25T23:23:42.873Z,8.10
2018-01-25T23:26:10.327Z,8.13
2018-01-25T23:28:37.783Z,9.03
2018-01-25T23:31:05.235Z,10.63
2018-01-25T23:33:32.655Z,10.60
2018-01-25T23:36:00.899Z,8.40
2018-01-25T23:38:34.902Z,8.10
2018-01-25T23:41:02.348Z,8.67
2018-01-25T23:43:29.779Z,9.43
2018-01-25T23:45:57.249Z,8.87
2018-01-25T23:48:24.682Z,8.20
2018-01-25T23:50:52.131Z,8.63
2018-01-25T23:53:19.571Z,9.63
2018-01-25T23:55:47.774Z,7.97
2018-01-25T23:58:15.223Z,13.07
